Time;durP1;ratioP1;P1;durP2;ratioP2;P2;SDS_P1;SDS_P2;PMS_P1;PMS_P2;Temp;Humidity;BMP_temperature;BMP_pressure;BME280_temperature;BME280_humidity;BME280_pressure;Samples;Min_cycle;Max_cycle;Signal;HPM_P1;HPM_P2
2023/07/30 00:00:12;;;;;;;6.45;4.07;;;;;;;22.84;45.11;99043.03;5014226;28;20036;-74
2023/07/30 00:02:38;;;;;;;5.80;3.17;;;;;;;23.06;44.61;99040.69;5008332;28;20037;-74
2023/07/30 00:05:03;;;;;;;7.03;3.50;;;;;;;23.12;44.69;99030.41;5009104;28;20033;-74
2023/07/30 00:07:29;;;;;;;3.97;3.42;;;;;;;22.52;45.90;99032.91;5014383;28;20025;-74
2023/07/30 00:09:54;;;;;;;8.15;3.72;;;;;;;22.65;46.11;99041.69;5002078;28;20500;-74
2023/07/30 00:12:20;;;;;;;7.13;3.42;;;;;;;22.28;46.41;99038.50;5010475;28;20570;-74
2023/07/30 00:14:45;;;;;;;4.70;2.92;;;;;;;22.05;46.69;99044.84;5012055;28;20481;-74
2023/07/30 00:17:10;;;;;;;5.25;3.25;;;;;;;22.14;46.76;99036.59;5014040;28;20489;-74
2023/07/30 00:19:36;;;;;;;10.27;3.53;;;;;;;22.38;46.21;99042.44;5009409;28;20470;-74
2023/07/30 00:22:01;;;;;;;3.70;3.00;;;;;;;22.56;45.34;99028.78;5013843;28;20486;-74
2023/07/30 00:24:27;;;;;;;6.75;2.95;;;;;;;22.51;45.79;99049.19;5013978;28;20026;-74
2023/07/30 00:26:52;;;;;;;4.28;3.05;;;;;;;21.89;47.27;99040.56;5013753;28;20493;-74
2023/07/30 00:29:18;;;;;;;6.43;3.53;;;;;;;22.01;47.30;99042.84;5013127;28;20057;-74
2023/07/30 00:31:43;;;;;;;3.40;2.95;;;;;;;22.50;46.95;99056.13;5011475;28;20033;-74
2023/07/30 00:34:09;;;;;;;7.32;3.25;;;;;;;22.75;46.28;99054.97;5012835;28;20057;-74
2023/07/30 00:36:34;;;;;;;4.72;3.65;;;;;;;23.00;45.95;99048.94;5012765;28;20026;-74
2023/07/30 00:38:59;;;;;;;3.65;3.08;;;;;;;23.14;45.47;99038.53;5013674;28;20026;-74
2023/07/30 00:41:25;;;;;;;7.85;3.25;;;;;;;22.81;46.73;99047.59;5012170;28;20029;-74
2023/07/30 00:43:50;;;;;;;13.65;3.75;;;;;;;22.92;46.27;99038.84;5008782;28;20029;-74
2023/07/30 00:46:16;;;;;;;7.13;3.13;;;;;;;23.06;46.20;99037.03;5011995;28;20481;-74
2023/07/30 00:48:42;;;;;;;8.48;3.58;;;;;;;22.80;47.01;99030.91;5012822;28;20133;-74
2023/07/30 00:51:09;;;;;;;5.82;3.20;;;;;;;22.39;47.83;99035.50;5012875;28;20037;-74
2023/07/30 00:53:36;;;;;;;6.63;3.60;;;;;;;22.39;47.93;99047.72;5011695;28;20057;-74
2023/07/30 00:56:02;;;;;;;3.55;3.22;;;;;;;21.94;48.82;99040.06;5008815;28;20041;-74
2023/07/30 00:58:27;;;;;;;3.42;2.95;;;;;;;21.39;50.62;99045.47;4997098;28;20026;-74
2023/07/30 01:00:54;;;;;;;5.10;3.50;;;;;;;21.60;50.40;99047.31;5012457;28;20042;-74
2023/07/30 01:03:20;;;;;;;5.05;3.45;;;;;;;21.97;48.92;99056.34;5012585;28;20030;-74
2023/07/30 01:05:45;;;;;;;4.35;2.95;;;;;;;22.06;49.38;99043.59;5003452;28;20041;-74
2023/07/30 01:08:11;;;;;;;7.68;3.38;;;;;;;22.04;48.00;99040.38;5012051;28;20492;-74
2023/07/30 01:10:40;;;;;;;4.20;3.08;;;;;;;21.83;48.08;99043.06;5013378;28;20037;-74
2023/07/30 01:13:07;;;;;;;8.18;3.72;;;;;;;21.09;50.08;99038.38;5013291;28;20170;-74
2023/07/30 01:15:33;;;;;;;4.45;3.17;;;;;;;21.32;49.97;99034.16;5012281;28;20021;-74
2023/07/30 01:17:58;;;;;;;3.63;3.00;;;;;;;21.58;50.37;99035.53;5013250;28;20041;-74
2023/07/30 01:20:24;;;;;;;7.95;4.07;;;;;;;21.52;50.43;99042.09;5013170;28;20026;-74
2023/07/30 01:22:49;;;;;;;9.57;4.38;;;;;;;21.82;49.96;99038.59;5011475;28;20033;-74
2023/07/30 01:25:16;;;;;;;4.65;3.03;;;;;;;22.06;49.53;99040.75;4995713;28;20056;-74
2023/07/30 01:27:51;;;;;;;11.98;3.42;;;;;;;22.19;49.20;99044.66;5013091;28;20028;-74
2023/07/30 01:30:30;;;;;;;17.65;3.90;;;;;;;22.25;49.15;99047.84;5001603;28;20018;-74
2023/07/30 01:32:56;;;;;;;4.20;3.20;;;;;;;22.27;49.20;99046.22;4999783;28;20034;-74
2023/07/30 01:35:26;;;;;;;4.55;3.28;;;;;;;22.32;49.25;99044.13;5012807;28;20046;-74
2023/07/30 01:37:53;;;;;;;4.22;3.35;;;;;;;21.81;50.46;99053.22;5009631;28;20048;-74
2023/07/30 01:40:19;;;;;;;4.82;3.65;;;;;;;21.56;51.58;99051.41;4992976;28;20114;-74
2023/07/30 01:42:45;;;;;;;5.32;3.33;;;;;;;21.78;51.18;99051.25;5002761;28;20572;-74
2023/07/30 01:45:10;;;;;;;6.55;3.45;;;;;;;21.38;52.34;99055.22;5012759;28;20104;-74
2023/07/30 01:47:36;;;;;;;4.57;3.33;;;;;;;21.41;52.64;99056.41;5012705;28;20467;-74
2023/07/30 01:50:01;;;;;;;8.80;4.20;;;;;;;21.38;52.87;99060.94;5012648;28;20069;-74
2023/07/30 01:52:27;;;;;;;6.03;4.40;;;;;;;;;;5011279;28;20057;-74
2023/07/30 01:54:52;;;;;;;5.32;3.40;;;;;;;21.10;53.46;99059.91;4991860;28;20049;-74
2023/07/30 01:57:18;;;;;;;4.85;3.65;;;;;;;20.80;54.44;99060.47;4994897;28;20481;-74
2023/07/30 01:59:44;;;;;;;6.30;4.13;;;;;;;20.81;54.85;99051.56;5011267;28;20022;-74
2023/07/30 02:02:09;;;;;;;12.57;4.63;;;;;;;21.10;54.05;99054.22;5012445;28;20103;-74
2023/07/30 02:04:35;;;;;;;9.30;5.05;;;;;;;21.13;53.92;99061.94;5011340;28;20034;-74
2023/07/30 02:07:00;;;;;;;8.35;3.92;;;;;;;21.11;53.96;99052.19;5012567;28;20064;-74
2023/07/30 02:09:25;;;;;;;7.80;4.40;;;;;;;20.66;55.14;99041.50;4995749;28;20022;-74
2023/07/30 02:11:51;;;;;;;4.95;3.90;;;;;;;20.82;54.96;99055.25;4998937;28;20037;-74
2023/07/30 02:14:18;;;;;;;8.90;3.70;;;;;;;20.80;54.68;99054.78;5012169;28;20040;-74
2023/07/30 02:16:44;;;;;;;7.28;4.43;;;;;;;20.89;54.63;99060.88;5010073;28;20029;-74
2023/07/30 02:19:09;;;;;;;4.80;3.97;;;;;;;20.85;54.64;99060.09;5012109;28;20065;-74
2023/07/30 02:21:36;;;;;;;4.45;3.85;;;;;;;20.87;54.25;99055.59;5002350;28;20040;-74
2023/07/30 02:24:02;;;;;;;5.97;4.45;;;;;;;21.04;53.74;99064.44;5011542;28;20109;-74
2023/07/30 02:26:28;;;;;;;9.77;4.85;;;;;;;21.03;53.59;99069.28;5010740;28;20113;-74
2023/07/30 02:28:53;;;;;;;10.25;4.40;;;;;;;20.83;54.06;99074.69;5011988;28;20493;-74
2023/07/30 02:31:18;;;;;;;7.15;4.38;;;;;;;19.78;57.98;99067.31;5010849;28;20084;-74
2023/07/30 02:33:44;;;;;;;6.03;4.00;;;;;;;20.36;56.04;99077.75;5009203;28;20092;-74
2023/07/30 02:36:09;;;;;;;11.45;4.60;;;;;;;20.75;55.27;99073.91;5006400;28;20037;-74
2023/07/30 02:38:35;;;;;;;8.95;4.88;;;;;;;21.00;54.34;99080.72;4997146;28;20045;-74
2023/07/30 02:41:00;;;;;;;9.38;4.45;;;;;;;21.15;54.06;99075.72;4992055;28;20026;-74
2023/07/30 02:43:26;;;;;;;9.00;4.32;;;;;;;20.94;54.80;99071.81;4992106;28;20030;-74
2023/07/30 02:45:51;;;;;;;10.95;5.75;;;;;;;20.82;55.49;99078.78;4991925;28;20030;-74
2023/07/30 02:48:16;;;;;;;9.35;4.55;;;;;;;20.69;55.15;99074.75;4997589;28;20036;-74
2023/07/30 02:50:42;;;;;;;13.32;4.53;;;;;;;20.85;55.16;99080.78;5005149;28;20089;-74
2023/07/30 02:53:08;;;;;;;14.80;4.80;;;;;;;20.97;54.59;99078.69;4991336;28;20034;-74
2023/07/30 02:55:33;;;;;;;17.48;5.28;;;;;;;20.95;54.54;99081.13;5005642;28;20496;-74
2023/07/30 02:57:58;;;;;;;18.58;4.47;;;;;;;21.02;55.01;99090.41;5011474;28;20026;-74
2023/07/30 03:00:24;;;;;;;10.75;3.83;;;;;;;20.89;55.08;99098.63;5011393;28;20030;-74
2023/07/30 03:02:49;;;;;;;16.90;5.40;;;;;;;20.90;54.83;99091.72;5002502;28;20037;-74
2023/07/30 03:05:15;;;;;;;29.48;8.57;;;;;;;20.76;55.19;99095.41;5009444;28;20083;-74
2023/07/30 03:07:40;;;;;;;13.95;4.18;;;;;;;20.66;55.58;99104.78;5004210;28;20037;-74
2023/07/30 03:10:06;;;;;;;8.27;4.15;;;;;;;20.60;56.01;99104.41;4992397;28;20033;-74
2023/07/30 03:12:32;;;;;;;6.90;4.30;;;;;;;20.51;56.21;99106.88;5004639;28;20054;-74
2023/07/30 03:14:57;;;;;;;16.10;4.68;;;;;;;20.73;55.76;99106.78;5001646;28;20416;-74
2023/07/30 03:17:22;;;;;;;14.57;5.95;;;;;;;20.47;56.47;99114.63;5008997;28;20457;-73
2023/07/30 03:19:48;;;;;;;13.20;5.15;;;;;;;20.24;57.45;99110.22;5011434;28;20412;-75
2023/07/30 03:22:13;;;;;;;4.78;3.67;;;;;;;20.20;57.66;99109.44;5007857;28;20026;-72
2023/07/30 03:24:39;;;;;;;11.45;3.85;;;;;;;20.36;56.92;99111.00;5001685;28;20026;-74
2023/07/30 03:27:05;;;;;;;14.13;4.50;;;;;;;20.44;56.43;99089.88;5011131;28;20022;-74
2023/07/30 03:29:30;;;;;;;17.40;4.47;;;;;;;20.41;56.93;99102.88;5006503;28;20030;-73
2023/07/30 03:31:56;;;;;;;14.27;4.45;;;;;;;20.37;57.13;99106.94;5008225;28;20096;-73
2023/07/30 03:34:21;;;;;;;18.13;4.35;;;;;;;20.33;57.33;99099.25;5010228;28;20501;-73
2023/07/30 03:36:47;;;;;;;4.80;3.33;;;;;;;20.33;57.21;99101.25;5009214;28;20056;-74
2023/07/30 03:39:12;;;;;;;8.65;4.72;;;;;;;20.27;57.29;99103.75;5011214;28;20485;-75
2023/07/30 03:41:38;;;;;;;6.43;4.13;;;;;;;20.25;57.59;99117.53;5009831;28;20497;-73
2023/07/30 03:44:03;;;;;;;13.70;5.22;;;;;;;20.03;58.75;99123.28;5011006;28;20021;-73
2023/07/30 03:46:29;;;;;;;10.20;4.65;;;;;;;20.26;57.44;99112.66;5010054;28;20441;-73
2023/07/30 03:48:54;;;;;;;7.72;4.20;;;;;;;20.15;56.89;99118.34;5010146;28;20038;-73
2023/07/30 03:51:20;;;;;;;11.63;3.80;;;;;;;19.53;58.07;99103.41;5010946;28;20029;-73
2023/07/30 03:53:45;;;;;;;7.47;4.20;;;;;;;19.12;60.39;99111.06;5006398;28;20037;-72
2023/07/30 03:56:10;;;;;;;4.45;3.70;;;;;;;19.25;60.66;99122.03;4995477;28;20457;-73
2023/07/30 03:58:36;;;;;;;9.52;4.20;;;;;;;19.56;59.56;99125.31;5001240;28;20407;-73
2023/07/30 04:01:02;;;;;;;9.07;4.20;;;;;;;18.96;60.89;99121.97;5009314;28;20038;-73
2023/07/30 04:03:27;;;;;;;4.93;3.65;;;;;;;19.01;61.22;99127.25;5004670;28;20042;-73
2023/07/30 04:05:52;;;;;;;10.32;4.10;;;;;;;19.41;59.91;99125.28;5007284;28;20034;-73
2023/07/30 04:08:18;;;;;;;5.97;4.03;;;;;;;19.31;59.92;99134.59;4995450;28;20026;-73
2023/07/30 04:10:43;;;;;;;11.00;4.18;;;;;;;19.16;61.00;99133.75;5009902;28;20022;-73
2023/07/30 04:13:09;;;;;;;7.85;4.50;;;;;;;19.20;61.01;99121.22;5014437;28;20025;-73
2023/07/30 04:15:34;;;;;;;10.48;5.03;;;;;;;19.70;59.57;99133.00;5014395;28;20030;-73
2023/07/30 04:18:00;;;;;;;7.53;4.60;;;;;;;19.73;59.53;99132.16;5014372;28;20030;-73
2023/07/30 04:20:25;;;;;;;7.07;4.40;;;;;;;19.79;59.85;99124.88;5014176;28;20030;-73
2023/07/30 04:22:51;;;;;;;4.65;3.90;;;;;;;19.88;60.07;99135.81;5014234;28;20018;-73
2023/07/30 04:25:17;;;;;;;6.20;4.43;;;;;;;19.83;60.46;99139.88;5011164;28;20028;-73
2023/07/30 04:27:42;;;;;;;9.18;4.88;;;;;;;20.04;60.28;99135.41;5014135;28;20401;-73
2023/07/30 04:30:08;;;;;;;16.13;4.93;;;;;;;19.91;60.32;99137.84;5014048;28;20029;-73
2023/07/30 04:32:34;;;;;;;11.13;5.03;;;;;;;19.91;60.68;99132.97;5014041;28;20072;-73
2023/07/30 04:35:01;;;;;;;12.50;4.60;;;;;;;20.06;60.07;99136.66;5014359;28;20054;-73
2023/07/30 04:37:26;;;;;;;6.45;4.53;;;;;;;20.20;59.95;99140.66;5007350;28;20703;-73
2023/07/30 04:39:51;;;;;;;10.95;4.97;;;;;;;20.39;59.13;99144.25;5011245;28;20080;-73
2023/07/30 04:42:17;;;;;;;5.35;4.20;;;;;;;20.49;59.14;99149.09;5012591;28;20030;-73
2023/07/30 04:44:44;;;;;;;8.60;4.10;;;;;;;20.94;57.56;99147.72;5013022;28;20026;-73
2023/07/30 04:47:09;;;;;;;7.25;3.95;;;;;;;21.34;55.84;99142.59;5011569;28;20036;-73
2023/07/30 04:49:36;;;;;;;8.65;4.55;;;;;;;21.00;56.29;99143.25;5011451;28;20023;-73
2023/07/30 04:52:02;;;;;;;4.90;3.92;;;;;;;21.21;56.13;99141.47;5013715;28;20097;-73
2023/07/30 04:54:27;;;;;;;7.68;3.28;;;;;;;21.57;55.13;99142.03;5013682;28;20125;-72
2023/07/30 04:56:53;;;;;;;4.47;3.88;;;;;;;21.49;55.03;99145.38;5012576;28;20033;-73
2023/07/30 04:59:19;;;;;;;7.80;3.95;;;;;;;21.53;54.94;99138.41;5012125;28;20026;-73
2023/07/30 05:01:44;;;;;;;6.35;3.70;;;;;;;21.49;54.59;99143.31;5006616;28;20030;-73
2023/07/30 05:04:09;;;;;;;5.18;3.50;;;;;;;21.53;54.18;99140.44;5013068;28;20113;-73
2023/07/30 05:06:35;;;;;;;4.28;3.78;;;;;;;21.47;54.31;99140.09;5011989;28;20022;-73
2023/07/30 05:09:00;;;;;;;10.85;4.75;;;;;;;21.63;53.83;99136.72;5010553;28;20465;-73
2023/07/30 05:11:26;;;;;;;12.60;5.75;;;;;;;21.60;53.80;99143.25;5006233;28;20684;-73
2023/07/30 05:13:51;;;;;;;10.35;5.22;;;;;;;21.86;53.48;99150.38;5003159;28;20420;-73
2023/07/30 05:16:17;;;;;;;13.63;5.70;;;;;;;22.09;52.56;99153.84;5003927;28;21203;-73
2023/07/30 05:18:42;;;;;;;9.00;4.55;;;;;;;22.45;50.91;99147.75;5004155;28;20394;-74
2023/07/30 05:21:08;;;;;;;12.73;4.45;;;;;;;22.60;50.57;99141.91;5001896;28;20046;-73
2023/07/30 05:23:33;;;;;;;7.05;3.90;;;;;;;22.71;49.70;99156.84;5004163;28;20101;-73
2023/07/30 05:25:58;;;;;;;14.02;4.25;;;;;;;22.81;48.95;99155.91;5011917;28;20037;-73
2023/07/30 05:28:24;;;;;;;4.85;3.67;;;;;;;22.82;48.82;99140.41;5008354;28;20030;-73
2023/07/30 05:30:50;;;;;;;4.22;3.60;;;;;;;22.76;48.67;99155.56;4992782;28;20029;-73
2023/07/30 05:33:15;;;;;;;7.40;4.53;;;;;;;22.85;48.38;99153.81;4993719;28;20095;-73
2023/07/30 05:35:41;;;;;;;14.15;4.97;;;;;;;23.15;47.75;99154.22;5008180;28;20121;-75
2023/07/30 05:38:06;;;;;;;6.45;4.72;;;;;;;23.04;47.55;99157.22;5008728;28;20030;-73
2023/07/30 05:40:32;;;;;;;7.47;4.57;;;;;;;23.19;48.04;99157.03;5011104;28;20029;-73
2023/07/30 05:42:57;;;;;;;8.93;4.80;;;;;;;23.22;46.91;99150.47;5012759;28;20022;-72
2023/07/30 05:45:22;;;;;;;10.13;4.35;;;;;;;23.41;46.83;99151.84;5011778;28;20033;-71
2023/07/30 05:47:48;;;;;;;6.95;4.63;;;;;;;23.60;46.58;99149.53;5011681;28;20080;-73
2023/07/30 05:50:13;;;;;;;4.00;3.20;;;;;;;23.67;46.06;99144.50;5006231;28;20080;-73
2023/07/30 05:52:39;;;;;;;5.10;3.80;;;;;;;23.83;45.94;99152.41;5007005;28;20029;-73
2023/07/30 05:55:05;;;;;;;4.03;3.13;;;;;;;23.88;45.37;99141.72;5007134;28;20029;-73
2023/07/30 05:57:30;;;;;;;4.88;3.72;;;;;;;23.94;45.31;99146.50;5007466;28;20028;-73
2023/07/30 05:59:56;;;;;;;8.23;3.63;;;;;;;23.89;44.27;99154.75;5015470;28;20026;-72
2023/07/30 06:02:21;;;;;;;5.38;3.38;;;;;;;23.89;44.40;99149.84;5005120;28;20018;-73
2023/07/30 06:04:47;;;;;;;5.50;3.00;;;;;;;24.03;44.17;99154.50;5010631;28;20018;-75
2023/07/30 06:07:12;;;;;;;5.55;3.78;;;;;;;23.98;44.45;99152.13;5012209;28;20485;-71
2023/07/30 06:09:37;;;;;;;4.97;3.25;;;;;;;23.95;44.57;99147.28;5009770;28;20029;-70
2023/07/30 06:12:03;;;;;;;4.60;3.40;;;;;;;23.98;44.66;99141.50;5010503;28;20083;-70
2023/07/30 06:14:28;;;;;;;4.43;3.65;;;;;;;23.94;44.62;99140.78;5009230;28;20026;-73
2023/07/30 06:16:54;;;;;;;7.95;3.88;;;;;;;24.00;44.86;99131.69;4997487;28;20032;-73
2023/07/30 06:19:20;;;;;;;3.35;3.05;;;;;;;24.11;44.69;99138.06;5001376;28;20646;-71
2023/07/30 06:21:45;;;;;;;4.28;3.22;;;;;;;24.32;44.07;99134.00;5008141;28;20425;-73
2023/07/30 06:24:11;;;;;;;3.40;2.83;;;;;;;24.37;43.36;99139.19;5009521;28;20028;-73
2023/07/30 06:26:36;;;;;;;7.43;3.30;;;;;;;24.55;43.35;99138.03;5009344;28;20579;-73
2023/07/30 06:29:02;;;;;;;7.88;3.47;;;;;;;24.58;41.86;99134.31;5007010;28;20468;-75
2023/07/30 06:31:28;;;;;;;15.13;4.15;;;;;;;24.85;42.02;99127.63;4994935;28;20026;-73
2023/07/30 06:33:53;;;;;;;9.32;3.60;;;;;;;24.79;41.10;99138.78;4998666;28;20521;-73
2023/07/30 06:36:19;;;;;;;5.20;3.40;;;;;;;25.13;40.75;99124.59;5006424;28;20033;-72
2023/07/30 06:38:44;;;;;;;8.68;3.42;;;;;;;25.50;39.55;99139.69;4997979;28;20025;-72
2023/07/30 06:41:10;;;;;;;5.05;3.50;;;;;;;25.79;41.43;99131.19;5008512;28;20476;-72
2023/07/30 06:43:35;;;;;;;6.22;3.95;;;;;;;25.84;39.01;99123.31;5002772;28;20116;-71
2023/07/30 06:46:01;;;;;;;7.82;3.20;;;;;;;25.99;38.58;99130.25;5004994;28;20139;-73
2023/07/30 06:48:26;;;;;;;7.70;4.20;;;;;;;26.10;38.07;99123.44;5005888;28;20421;-73
2023/07/30 06:50:51;;;;;;;8.75;4.35;;;;;;;26.52;39.84;99128.47;5011359;28;20041;-74
2023/07/30 06:53:17;;;;;;;5.03;3.88;;;;;;;26.81;37.41;99125.56;5009293;28;20037;-74
2023/07/30 06:55:43;;;;;;;8.48;4.20;;;;;;;27.08;37.03;99124.38;5010518;28;20547;-72
2023/07/30 06:58:08;;;;;;;9.73;4.35;;;;;;;27.33;37.42;99112.09;5011595;28;20492;-72
2023/07/30 07:00:34;;;;;;;10.38;3.70;;;;;;;27.04;36.73;99110.16;5009621;28;20026;-83
2023/07/30 07:02:59;;;;;;;4.10;3.45;;;;;;;27.40;37.05;99113.16;5011282;28;20034;-74
2023/07/30 07:05:25;;;;;;;3.95;3.25;;;;;;;27.77;36.12;99110.72;5010150;28;20030;-74
2023/07/30 07:07:50;;;;;;;4.35;3.33;;;;;;;27.89;35.54;99109.88;5008097;28;20412;-76
2023/07/30 07:10:16;;;;;;;6.43;3.92;;;;;;;27.90;34.64;99104.91;5009557;28;20409;-75
2023/07/30 07:12:41;;;;;;;7.18;3.42;;;;;;;27.71;35.01;99107.63;5011632;28;20508;-73
2023/07/30 07:15:07;;;;;;;3.65;3.05;;;;;;;27.97;35.42;99098.13;5010196;28;20025;-73
2023/07/30 07:17:33;;;;;;;5.90;3.40;;;;;;;28.09;34.92;99105.09;5006985;28;20126;-75
2023/07/30 07:19:59;;;;;;;5.78;3.25;;;;;;;28.07;34.16;99105.56;5001204;28;20432;-77
2023/07/30 07:22:24;;;;;;;6.90;3.97;;;;;;;28.43;35.12;99104.28;5003553;28;20061;-75
2023/07/30 07:24:52;;;;;;;7.18;3.80;;;;;;;28.65;33.73;99102.69;5004833;28;20481;-72
2023/07/30 07:27:18;;;;;;;11.13;4.13;;;;;;;28.87;33.93;99102.69;5007576;28;20033;-75
2023/07/30 07:29:43;;;;;;;8.05;3.78;;;;;;;28.75;33.39;99095.72;5011045;28;20030;-74
2023/07/30 07:32:09;;;;;;;6.32;3.38;;;;;;;28.54;33.38;99097.34;5009244;28;20026;-74
2023/07/30 07:34:35;;;;;;;7.00;3.72;;;;;;;28.51;33.00;99089.66;5002506;28;20058;-77
2023/07/30 07:37:02;;;;;;;3.65;3.00;;;;;;;28.95;32.32;99085.94;4991554;28;20038;-77
2023/07/30 07:39:27;;;;;;;13.63;4.43;;;;;;;29.02;33.01;99065.50;5025130;28;20034;-73
2023/07/30 07:41:55;;;;;;;8.75;3.40;;;;;;;29.32;33.08;99089.00;5013708;28;20045;-77
2023/07/30 07:44:21;;;;;;;8.77;3.80;;;;;;;29.42;33.29;99078.28;5004510;28;20057;-76
2023/07/30 07:46:47;;;;;;;5.88;3.28;;;;;;;29.54;34.23;99091.78;5001862;28;20041;-77
2023/07/30 07:49:12;;;;;;;8.55;3.42;;;;;;;29.63;32.85;99096.00;5001519;28;20500;-77
2023/07/30 07:51:38;;;;;;;4.38;3.58;;;;;;;29.14;32.58;99078.19;5011791;28;20017;-74
2023/07/30 07:54:03;;;;;;;3.78;3.33;;;;;;;29.37;32.35;99082.59;5014614;28;20029;-77
2023/07/30 07:56:30;;;;;;;4.80;3.30;;;;;;;29.54;33.38;99073.72;5013606;28;20034;-78
2023/07/30 07:58:55;;;;;;;8.65;3.90;;;;;;;29.23;32.02;99065.91;5006297;28;20056;-78
2023/07/30 08:01:21;;;;;;;4.22;3.75;;;;;;;29.55;33.16;99069.56;5009700;28;20057;-78
2023/07/30 08:03:46;;;;;;;4.65;3.30;;;;;;;29.74;33.07;99063.81;5014309;28;20029;-78
2023/07/30 08:06:12;;;;;;;5.75;3.38;;;;;;;29.60;31.90;99071.03;5013375;28;20385;-78
2023/07/30 08:08:37;;;;;;;7.05;3.67;;;;;;;29.83;31.65;99070.41;5014713;28;20026;-78
2023/07/30 08:11:07;;;;;;;5.93;3.53;;;;;;;30.10;32.88;99071.75;5013561;28;20022;-79
2023/07/30 08:13:33;;;;;;;5.70;3.30;;;;;;;30.24;32.41;99061.66;5012556;28;20112;-79
2023/07/30 08:15:59;;;;;;;11.55;3.72;;;;;;;30.39;32.64;99061.00;5009754;28;20026;-79
2023/07/30 08:18:24;;;;;;;3.67;3.35;;;;;;;30.47;32.34;99059.38;5010438;28;20512;-78
2023/07/30 08:20:50;;;;;;;6.38;3.50;;;;;;;30.45;31.82;99035.97;5012182;28;20080;-78
2023/07/30 08:23:15;;;;;;;4.97;3.60;;;;;;;30.71;30.72;99047.19;5011255;28;20034;-78
2023/07/30 08:25:41;;;;;;;5.80;3.60;;;;;;;31.09;32.21;99050.72;5007094;28;20556;-76
2023/07/30 08:28:06;;;;;;;7.03;3.50;;;;;;;31.28;31.57;99050.69;5008500;28;20026;-75
2023/07/30 08:30:32;;;;;;;5.75;3.60;;;;;;;31.47;30.61;99034.81;5006419;28;20025;-71
2023/07/30 08:32:57;;;;;;;5.22;3.00;;;;;;;31.50;31.84;99042.53;5006461;28;20029;-75
2023/07/30 08:35:23;;;;;;;3.13;2.83;;;;;;;30.96;30.36;99034.41;5006468;28;20060;-75
2023/07/30 08:37:48;;;;;;;4.00;3.45;;;;;;;31.10;30.73;99043.66;4995777;28;20479;-73
2023/07/30 08:40:14;;;;;;;4.93;3.70;;;;;;;31.37;30.27;99039.06;5007646;28;20041;-78
2023/07/30 08:42:40;;;;;;;8.07;3.80;;;;;;;31.55;29.95;99025.81;5012482;28;20038;-73
2023/07/30 08:45:08;;;;;;;3.33;3.03;;;;;;;31.74;28.84;99027.28;5012734;28;20030;-76
2023/07/30 08:47:35;;;;;;;13.32;3.50;;;;;;;32.13;29.58;99020.69;5002563;28;20038;-75
2023/07/30 08:50:00;;;;;;;6.88;3.03;;;;;;;32.03;26.62;99020.00;5005569;28;20026;-75
2023/07/30 08:52:28;;;;;;;5.15;3.10;;;;;;;32.37;26.96;99016.19;5008753;28;20044;-74
2023/07/30 08:54:55;;;;;;;3.45;2.90;;;;;;;32.04;27.13;99015.81;5003249;28;20048;-73
2023/07/30 08:57:21;;;;;;;5.13;2.88;;;;;;;32.40;27.30;99006.50;5008392;28;20056;-74
2023/07/30 09:00:12;;;;;;;4.03;3.63;;;;;;;32.37;26.86;99001.72;4998305;28;20030;-74
2023/07/30 09:02:44;;;;;;;3.35;2.78;;;;;;;32.63;27.93;98999.81;5004019;28;20042;-77
2023/07/30 09:05:09;;;;;;;5.05;4.28;;;;;;;32.79;27.06;98991.13;4998391;28;20042;-77
2023/07/30 09:07:35;;;;;;;5.68;3.08;;;;;;;32.77;26.96;98982.94;5006374;28;20428;-76
2023/07/30 09:10:01;;;;;;;3.67;2.90;;;;;;;32.75;26.02;98988.44;4996170;28;20029;-80
2023/07/30 09:12:30;;;;;;;4.50;3.40;;;;;;;33.01;28.52;98985.72;5006202;28;20037;-78
2023/07/30 09:14:56;;;;;;;7.50;3.05;;;;;;;33.15;27.64;98986.16;5008827;28;20038;-79
2023/07/30 09:17:22;;;;;;;3.20;2.90;;;;;;;33.39;26.57;98980.16;5001064;28;20577;-79
2023/07/30 09:19:50;;;;;;;4.68;2.60;;;;;;;33.35;25.81;98982.50;5000553;28;20034;-79
2023/07/30 09:22:29;;;;;;;3.83;3.25;;;;;;;33.53;26.98;98974.84;5001188;28;20049;-80
2023/07/30 09:24:57;;;;;;;7.43;3.33;;;;;;;33.44;26.66;98975.75;5009753;28;20488;-79
2023/07/30 09:27:26;;;;;;;8.43;3.10;;;;;;;33.41;27.31;98976.78;4997540;28;20038;-81
2023/07/30 09:29:58;;;;;;;6.78;3.35;;;;;;;33.55;26.46;98967.25;4991339;28;20483;-80
2023/07/30 09:32:27;;;;;;;9.73;2.90;;;;;;;33.49;26.18;98968.47;5007034;28;20121;-81
2023/07/30 09:34:54;;;;;;;6.22;3.05;;;;;;;33.68;26.08;98963.19;4998354;28;20061;-81
2023/07/30 09:37:19;;;;;;;5.72;3.67;;;;;;;33.66;25.56;98951.31;5006672;28;20038;-83
2023/07/30 09:39:47;;;;;;;7.18;3.20;;;;;;;33.80;26.03;98943.81;5006470;28;20037;-84
2023/07/30 09:42:13;;;;;;;6.85;3.38;;;;;;;34.01;25.70;98942.47;5004185;28;20026;-83
2023/07/30 09:44:39;;;;;;;8.40;3.15;;;;;;;33.92;24.91;98924.44;5005314;28;20041;-82
2023/07/30 09:47:08;;;;;;;10.55;2.97;;;;;;;33.83;25.09;98937.00;5007795;28;20476;-82
2023/07/30 09:49:34;;;;;;;5.63;2.90;;;;;;;33.69;24.92;98927.91;5009378;28;20014;-81
2023/07/30 09:52:01;;;;;;;30.58;3.83;;;;;;;34.13;24.37;98931.00;5014243;28;20120;-82
2023/07/30 09:54:26;;;;;;;3.53;3.05;;;;;;;34.40;24.30;98926.75;5004522;28;20096;-83
2023/07/30 09:56:52;;;;;;;7.28;3.97;;;;;;;34.36;24.31;98925.41;5008596;28;20064;-83
2023/07/30 09:59:17;;;;;;;3.90;3.20;;;;;;;34.34;24.27;98928.84;5000890;28;20065;-83
2023/07/30 10:01:49;;;;;;;3.47;2.50;;;;;;;34.11;23.89;98924.91;4991665;28;20496;-83
2023/07/30 10:04:15;;;;;;;3.92;3.03;;;;;;;34.37;24.02;98922.00;4993419;28;20082;-83
2023/07/30 10:06:53;;;;;;;6.25;2.83;;;;;;;34.72;22.64;98918.06;5002971;28;20021;-81
2023/07/30 10:09:23;;;;;;;2.83;2.60;;;;;;;34.71;24.02;98909.88;5001697;28;20022;-83
2023/07/30 10:11:50;;;;;;;3.15;2.85;;;;;;;34.87;23.18;98899.69;5000095;28;20033;-81
2023/07/30 10:14:19;;;;;;;12.00;3.13;;;;;;;35.06;23.05;98899.31;4998924;28;20064;-82
2023/07/30 10:16:55;;;;;;;5.10;3.88;;;;;;;35.14;23.05;98900.38;4997006;28;20027;-82
2023/07/30 10:19:25;;;;;;;4.63;3.35;;;;;;;35.48;22.32;98896.81;5001330;28;20033;-82
2023/07/30 10:21:53;;;;;;;4.95;2.90;;;;;;;35.31;23.40;98896.78;4995913;28;20114;-82
2023/07/30 10:24:18;;;;;;;4.40;2.72;;;;;;;35.49;23.78;98886.81;4995447;28;20034;-82
2023/07/30 10:26:44;;;;;;;4.57;3.15;;;;;;;35.57;23.63;98882.09;5000767;28;20025;-82
2023/07/30 10:29:10;;;;;;;6.43;2.65;;;;;;;35.39;24.00;98886.22;5001848;28;20045;-82
2023/07/30 10:31:47;;;;;;;3.15;2.85;;;;;;;35.63;23.40;98888.72;5019690;28;20505;-82
2023/07/30 10:34:13;;;;;;;3.25;2.85;;;;;;;35.65;23.62;98883.16;4995271;28;20513;-82
2023/07/30 10:36:48;;;;;;;5.47;3.05;;;;;;;35.51;23.08;98881.25;4997027;28;20029;-82
2023/07/30 10:39:18;;;;;;;4.07;2.60;;;;;;;35.73;23.77;98876.84;4994416;28;20030;-82
2023/07/30 10:41:55;;;;;;;8.50;2.60;;;;;;;35.66;24.15;98876.03;5008210;28;20025;-82
2023/07/30 10:44:34;;;;;;;6.60;3.00;;;;;;;35.48;23.29;98870.66;5015272;28;20057;-81
2023/07/30 10:47:02;;;;;;;4.18;2.85;;;;;;;35.09;23.51;98858.38;5001286;28;20049;-81
2023/07/30 10:49:28;;;;;;;13.80;3.58;;;;;;;35.37;24.04;98857.69;5002783;28;20032;-81
2023/07/30 10:51:57;;;;;;;3.65;2.15;;;;;;;35.25;22.38;98856.06;5003747;28;20030;-81
2023/07/30 10:54:22;;;;;;;3.13;2.83;;;;;;;34.95;22.89;98863.03;5004794;28;20025;-81
2023/07/30 10:56:48;;;;;;;6.13;2.60;;;;;;;35.46;21.86;98856.66;5004348;28;20030;-81
2023/07/30 10:59:15;;;;;;;6.05;2.58;;;;;;;35.78;23.42;98855.69;5005190;28;20501;-82
2023/07/30 11:01:45;;;;;;;3.65;3.35;;;;;;;36.01;23.50;98852.81;4998334;28;20416;-81
2023/07/30 11:04:13;;;;;;;2.85;2.65;;;;;;;36.09;22.84;98851.78;5007233;28;20092;-81
2023/07/30 11:06:39;;;;;;;5.55;2.45;;;;;;;36.33;22.64;98847.56;4994944;28;20041;-81
2023/07/30 11:09:05;;;;;;;3.30;2.30;;;;;;;36.50;21.83;98847.53;5006146;28;20034;-82
2023/07/30 11:11:31;;;;;;;4.32;2.60;;;;;;;36.64;21.37;98839.88;4990906;28;20080;-82
2023/07/30 11:13:58;;;;;;;5.82;2.75;;;;;;;36.48;22.66;98844.38;4990647;28;20019;-82
2023/07/30 11:16:24;;;;;;;7.57;2.95;;;;;;;35.98;21.42;98832.19;4998329;28;20091;-82
2023/07/30 11:18:50;;;;;;;4.28;3.10;;;;;;;36.12;21.12;98823.75;5009417;28;20042;-82
2023/07/30 11:21:18;;;;;;;3.67;2.80;;;;;;;36.33;22.27;98820.56;4995866;28;20453;-81
2023/07/30 11:23:44;;;;;;;2.67;2.47;;;;;;;36.53;22.17;98823.16;4992803;28;20030;-82
2023/07/30 11:26:17;;;;;;;4.82;2.58;;;;;;;36.79;20.89;98821.28;4996121;28;20137;-81